createdAt,value
2023-02-26T00:01:46.153Z,9.80
2023-02-26T00:04:14.749Z,10.43
2023-02-26T00:06:53.219Z,10.55
2023-02-26T00:09:26.485Z,12.63
2023-02-26T00:11:55.197Z,11.48
2023-02-26T00:14:24.927Z,12.23
2023-02-26T00:17:26.506Z,11.95
2023-02-26T00:19:55.263Z,10.65
2023-02-26T00:22:24.686Z,11.35
2023-02-26T00:24:53.242Z,10.88
2023-02-26T00:27:21.456Z,10.23
2023-02-26T00:29:49.943Z,11.45
2023-02-26T00:32:18.403Z,11.30
2023-02-26T00:34:48.292Z,11.82
2023-02-26T00:37:44.434Z,10.65
2023-02-26T00:40:26.773Z,11.88
2023-02-26T00:42:55.269Z,10.70
2023-02-26T00:45:24.029Z,14.18
2023-02-26T00:48:10.709Z,14.32
2023-02-26T00:50:50.580Z,14.35
2023-02-26T00:53:27.321Z,9.68
2023-02-26T00:55:55.984Z,9.90
2023-02-26T00:58:25.012Z,7.82
2023-02-26T01:00:54.071Z,8.40
2023-02-26T01:03:22.350Z,8.00
2023-02-26T01:05:50.994Z,9.35
2023-02-26T01:08:29.843Z,9.85
2023-02-26T01:10:58.425Z,9.48
2023-02-26T01:13:30.111Z,9.02
2023-02-26T01:16:08.960Z,9.88
2023-02-26T01:18:50.435Z,10.65
2023-02-26T01:21:28.228Z,9.93
2023-02-26T01:23:56.335Z,10.48
2023-02-26T01:26:29.610Z,10.15
2023-02-26T01:28:58.006Z,10.98
2023-02-26T01:31:44.318Z,10.93
2023-02-26T01:34:26.648Z,14.45
2023-02-26T01:37:21.508Z,16.30
2023-02-26T01:39:58.064Z,10.82
2023-02-26T01:42:30.857Z,14.85
2023-02-26T01:45:16.699Z,14.32
2023-02-26T01:48:12.174Z,12.48
2023-02-26T01:50:40.766Z,10.45
2023-02-26T01:53:21.823Z,12.15
2023-02-26T01:56:03.688Z,11.80
2023-02-26T01:58:34.992Z,13.63
2023-02-26T02:01:03.274Z,18.98
2023-02-26T02:03:38.960Z,11.40
2023-02-26T02:06:12.209Z,13.82
2023-02-26T02:08:43.093Z,12.70
2023-02-26T02:11:15.868Z,11.85
2023-02-26T02:13:56.128Z,13.52
2023-02-26T02:16:34.832Z,12.75
2023-02-26T02:19:28.880Z,10.43
2023-02-26T02:22:34.582Z,11.85
2023-02-26T02:25:32.117Z,9.38
2023-02-26T02:28:06.068Z,10.15
2023-02-26T02:30:55.934Z,10.48
2023-02-26T02:33:33.283Z,9.70
2023-02-26T02:36:11.114Z,9.43
2023-02-26T02:39:02.245Z,9.77
2023-02-26T02:41:35.815Z,9.98
2023-02-26T02:44:09.270Z,9.70
2023-02-26T02:46:41.813Z,10.73
2023-02-26T02:49:26.335Z,9.95
2023-02-26T02:52:15.184Z,12.60
2023-02-26T02:54:58.816Z,10.15
2023-02-26T02:57:40.342Z,10.60
2023-02-26T03:00:14.109Z,9.40
2023-02-26T03:03:10.582Z,10.48
2023-02-26T03:05:38.677Z,10.35
2023-02-26T03:08:12.824Z,8.98
2023-02-26T03:10:41.802Z,10.98
2023-02-26T03:13:22.954Z,11.57
2023-02-26T03:16:02.640Z,10.45
2023-02-26T03:18:31.071Z,11.82
2023-02-26T03:21:12.006Z,12.48
2023-02-26T03:23:49.709Z,11.65
2023-02-26T03:26:26.936Z,11.48
2023-02-26T03:29:03.631Z,10.82
2023-02-26T03:31:53.023Z,12.10
2023-02-26T03:34:31.050Z,9.05
2023-02-26T03:37:12.020Z,9.52
2023-02-26T03:39:48.562Z,8.77
2023-02-26T03:42:27.864Z,9.20
2023-02-26T03:45:07.466Z,8.85
2023-02-26T03:47:40.106Z,9.75
2023-02-26T03:50:18.576Z,9.93
2023-02-26T03:53:01.877Z,10.05
2023-02-26T03:55:52.834Z,12.35
2023-02-26T03:58:50.882Z,16.38
2023-02-26T04:01:50.531Z,15.05
2023-02-26T04:04:36.031Z,17.33
2023-02-26T04:07:04.376Z,11.10
2023-02-26T04:09:32.551Z,11.82
2023-02-26T04:12:01.677Z,11.32
2023-02-26T04:14:31.174Z,12.30
2023-02-26T04:16:59.325Z,11.93
2023-02-26T04:19:27.296Z,11.57
2023-02-26T04:21:55.575Z,10.05
2023-02-26T04:24:24.365Z,12.80
2023-02-26T04:26:53.619Z,10.85
2023-02-26T04:29:21.661Z,9.60
2023-02-26T04:31:50.374Z,10.40
2023-02-26T04:34:18.769Z,10.75
2023-02-26T04:36:46.766Z,8.18
2023-02-26T04:39:15.016Z,8.77
2023-02-26T04:41:42.966Z,10.82
2023-02-26T04:44:11.495Z,9.90
2023-02-26T04:46:42.855Z,9.98
2023-02-26T04:49:11.109Z,10.32
2023-02-26T04:51:43.184Z,8.88
2023-02-26T04:54:13.329Z,10.10
2023-02-26T04:56:42.662Z,11.60
2023-02-26T04:59:10.930Z,10.50
2023-02-26T05:01:39.007Z,11.45
2023-02-26T05:04:09.233Z,9.48
2023-02-26T05:06:37.895Z,8.68
2023-02-26T05:09:06.122Z,9.32
2023-02-26T05:11:34.830Z,9.85
2023-02-26T05:14:02.897Z,14.18
2023-02-26T05:16:31.368Z,9.48
2023-02-26T05:18:59.854Z,10.10
2023-02-26T05:21:28.100Z,9.85
2023-02-26T05:23:56.117Z,9.98
2023-02-26T05:26:24.777Z,10.20
2023-02-26T05:28:53.206Z,10.10
2023-02-26T05:31:21.910Z,11.23
2023-02-26T05:33:50.142Z,9.30
2023-02-26T05:36:18.268Z,10.00
2023-02-26T05:38:46.335Z,9.77
2023-02-26T05:41:15.026Z,9.52
2023-02-26T05:43:42.941Z,11.13
2023-02-26T05:46:11.995Z,13.40
2023-02-26T05:48:40.154Z,10.18
2023-02-26T05:51:08.213Z,11.25
2023-02-26T05:53:36.534Z,12.00
2023-02-26T05:56:06.075Z,11.98
2023-02-26T05:58:34.712Z,12.45
2023-02-26T06:01:03.090Z,10.93
2023-02-26T06:03:31.639Z,11.25
2023-02-26T06:06:00.114Z,11.75
2023-02-26T06:08:28.372Z,13.27
2023-02-26T06:10:56.387Z,14.43
2023-02-26T06:13:25.326Z,12.38
2023-02-26T06:15:56.430Z,11.57
2023-02-26T06:18:24.846Z,9.93
2023-02-26T06:20:52.838Z,13.85
2023-02-26T06:23:20.834Z,12.27
2023-02-26T06:25:52.623Z,11.48
2023-02-26T06:28:21.355Z,13.43
2023-02-26T06:30:50.294Z,14.77
2023-02-26T06:33:19.561Z,15.48
2023-02-26T06:35:50.073Z,17.63
2023-02-26T06:38:19.705Z,15.93
2023-02-26T06:40:48.476Z,14.10
2023-02-26T06:43:20.292Z,15.63
2023-02-26T06:45:48.836Z,12.65
2023-02-26T06:48:17.232Z,29.05
2023-02-26T06:50:48.259Z,19.95
2023-02-26T06:53:16.671Z,17.73
2023-02-26T06:55:46.566Z,16.75
2023-02-26T06:58:14.596Z,14.90
2023-02-26T07:00:43.251Z,13.02
2023-02-26T07:03:17.181Z,14.30
2023-02-26T07:05:46.441Z,13.27
2023-02-26T07:08:15.373Z,12.57
2023-02-26T07:10:44.149Z,12.85
2023-02-26T07:13:13.409Z,12.48
2023-02-26T07:15:41.645Z,19.13
2023-02-26T07:18:10.047Z,14.77
2023-02-26T07:20:38.092Z,13.70
2023-02-26T07:23:07.212Z,14.52
2023-02-26T07:25:35.286Z,14.52
2023-02-26T07:28:05.218Z,14.95
2023-02-26T07:30:34.104Z,14.85
2023-02-26T07:33:02.628Z,13.75
2023-02-26T07:35:30.976Z,14.90
2023-02-26T07:37:58.951Z,13.85
2023-02-26T07:40:27.457Z,15.60
2023-02-26T07:42:55.515Z,14.52
2023-02-26T07:45:24.635Z,16.65
2023-02-26T07:47:53.307Z,15.23
2023-02-26T07:50:25.060Z,14.38
2023-02-26T07:52:53.901Z,14.50
2023-02-26T07:55:22.724Z,14.18
2023-02-26T07:57:50.745Z,14.48
2023-02-26T08:00:19.688Z,13.52
2023-02-26T08:02:49.080Z,15.90
2023-02-26T08:05:18.129Z,15.25
2023-02-26T08:07:46.053Z,14.52
2023-02-26T08:10:14.933Z,13.40
2023-02-26T08:12:42.964Z,13.23
2023-02-26T08:15:14.445Z,14.15
2023-02-26T08:17:43.171Z,15.45
2023-02-26T08:20:14.508Z,14.57
2023-02-26T08:22:46.021Z,14.75
2023-02-26T08:25:14.046Z,13.30
2023-02-26T08:27:45.679Z,13.40
2023-02-26T08:30:17.301Z,14.45
2023-02-26T08:32:46.372Z,13.98
2023-02-26T08:35:17.385Z,13.02
2023-02-26T08:37:45.815Z,12.93
2023-02-26T08:40:16.565Z,12.60
2023-02-26T08:42:44.711Z,12.48
2023-02-26T08:45:13.231Z,12.13
2023-02-26T08:47:56.822Z,13.63
2023-02-26T08:50:28.541Z,13.60
2023-02-26T08:52:56.917Z,12.45
2023-02-26T08:55:25.142Z,12.48
2023-02-26T08:57:53.330Z,11.77
2023-02-26T09:00:22.057Z,14.60
2023-02-26T09:02:50.411Z,16.45
2023-02-26T09:05:19.195Z,17.70
2023-02-26T09:07:47.377Z,14.07
2023-02-26T09:10:16.545Z,12.70
2023-02-26T09:12:45.238Z,12.02
2023-02-26T09:15:15.008Z,13.07
2023-02-26T09:17:43.215Z,14.02
2023-02-26T09:20:16.042Z,16.30
2023-02-26T09:22:44.921Z,17.30
2023-02-26T09:25:13.604Z,19.33
2023-02-26T09:27:42.020Z,15.38
2023-02-26T09:30:14.389Z,16.90
2023-02-26T09:32:42.800Z,16.92
2023-02-26T09:35:11.925Z,18.38
2023-02-26T09:37:40.360Z,19.30
2023-02-26T09:40:37.274Z,19.05
2023-02-26T09:43:28.916Z,18.88
2023-02-26T09:46:03.436Z,17.08
2023-02-26T09:48:35.226Z,30.73
2023-02-26T09:51:04.711Z,20.88
2023-02-26T09:53:38.834Z,21.40
2023-02-26T09:56:18.231Z,23.13
2023-02-26T09:58:47.233Z,19.67
2023-02-26T10:01:36.064Z,18.48
2023-02-26T10:04:29.721Z,18.60
2023-02-26T10:07:10.263Z,16.30
2023-02-26T10:09:55.679Z,12.93
2023-02-26T10:12:28.644Z,18.80
2023-02-26T10:15:31.526Z,13.60
2023-02-26T10:18:05.961Z,9.63
2023-02-26T10:20:55.922Z,10.88
2023-02-26T10:23:45.156Z,7.93
2023-02-26T10:26:19.875Z,8.35
2023-02-26T10:29:27.605Z,6.95
2023-02-26T10:32:00.618Z,7.30
2023-02-26T10:34:42.233Z,5.72
2023-02-26T10:37:20.592Z,6.35
2023-02-26T10:40:09.905Z,7.63
2023-02-26T10:42:56.002Z,6.40
2023-02-26T10:45:59.355Z,6.45
2023-02-26T10:49:00.791Z,7.32
2023-02-26T10:51:36.387Z,6.72
2023-02-26T10:54:12.774Z,9.82
2023-02-26T10:56:40.701Z,7.53
2023-02-26T10:59:09.027Z,7.03
2023-02-26T11:01:37.410Z,11.90
2023-02-26T11:04:30.544Z,12.43
2023-02-26T11:07:01.978Z,13.52
2023-02-26T11:09:39.567Z,8.85
2023-02-26T11:12:15.120Z,6.07
2023-02-26T11:14:44.306Z,6.13
2023-02-26T11:17:29.639Z,6.30
2023-02-26T11:20:05.712Z,5.57
2023-02-26T11:22:39.508Z,5.72
2023-02-26T11:25:13.076Z,5.40
2023-02-26T11:27:46.289Z,6.00
2023-02-26T11:30:22.473Z,5.30
2023-02-26T11:32:53.811Z,4.65
2023-02-26T11:35:26.886Z,4.47
2023-02-26T11:38:00.047Z,5.10
2023-02-26T11:43:18.646Z,5.57
2023-02-26T11:45:54.094Z,7.88
2023-02-26T11:48:26.494Z,9.93
2023-02-26T11:50:59.261Z,12.10
2023-02-26T11:53:34.818Z,7.90
2023-02-26T11:56:27.371Z,6.90
2023-02-26T11:58:56.169Z,9.70
2023-02-26T12:01:29.544Z,8.73
2023-02-26T12:04:01.758Z,11.10
2023-02-26T12:06:30.832Z,11.25
2023-02-26T12:08:59.268Z,9.13
2023-02-26T12:12:01.200Z,10.50
2023-02-26T12:14:32.186Z,6.28
2023-02-26T12:17:35.315Z,7.55
2023-02-26T12:20:20.284Z,5.27
2023-02-26T12:22:56.402Z,7.03
2023-02-26T12:26:01.999Z,6.57
2023-02-26T12:29:13.374Z,7.60
2023-02-26T12:32:22.890Z,6.88
2023-02-26T12:35:03.044Z,8.38
2023-02-26T12:38:05.049Z,7.85
2023-02-26T12:40:51.775Z,6.80
2023-02-26T12:43:30.815Z,7.15
2023-02-26T12:46:31.938Z,7.47
2023-02-26T12:49:50.661Z,6.80
2023-02-26T12:52:44.119Z,6.03
2023-02-26T12:55:20.196Z,6.97
2023-02-26T12:58:27.260Z,10.07
2023-02-26T13:01:11.500Z,7.00
2023-02-26T13:04:02.806Z,7.10
2023-02-26T13:06:45.428Z,7.85
2023-02-26T13:09:34.242Z,9.10
2023-02-26T13:12:58.357Z,11.25
2023-02-26T13:15:44.346Z,6.63
2023-02-26T13:18:32.045Z,4.70
2023-02-26T13:21:05.196Z,4.45
2023-02-26T13:26:35.038Z,5.53
2023-02-26T13:29:10.331Z,5.30
2023-02-26T13:31:53.622Z,3.72
2023-02-26T13:34:30.892Z,6.80
2023-02-26T13:37:00.944Z,4.57
2023-02-26T13:39:44.584Z,3.95
2023-02-26T13:42:27.208Z,4.78
2023-02-26T13:45:20.002Z,4.80
2023-02-26T13:47:57.083Z,4.97
2023-02-26T13:50:53.735Z,5.80
2023-02-26T13:53:25.111Z,6.75
2023-02-26T13:55:54.826Z,6.03
2023-02-26T13:58:22.747Z,8.30
2023-02-26T14:01:05.467Z,8.23
2023-02-26T14:03:47.692Z,4.82
2023-02-26T14:06:39.373Z,5.70
2023-02-26T14:09:35.432Z,4.90
2023-02-26T14:12:18.657Z,4.75
2023-02-26T14:15:12.392Z,3.90
2023-02-26T14:18:01.916Z,4.47
2023-02-26T14:20:32.360Z,4.00
2023-02-26T14:23:00.326Z,2.65
2023-02-26T14:25:49.508Z,3.13
2023-02-26T14:28:26.936Z,2.85
2023-02-26T14:31:17.770Z,2.10
2023-02-26T14:33:59.720Z,2.55
2023-02-26T14:36:41.022Z,3.05
2023-02-26T14:39:34.902Z,3.78
2023-02-26T14:42:20.192Z,4.88
2023-02-26T14:44:53.717Z,6.72
2023-02-26T14:47:48.005Z,5.93
2023-02-26T14:50:22.383Z,5.25
2023-02-26T14:53:08.845Z,7.72
2023-02-26T14:55:39.494Z,8.20
2023-02-26T14:58:31.908Z,6.68
2023-02-26T15:01:27.274Z,7.32
2023-02-26T15:04:16.810Z,4.57
2023-02-26T15:07:11.710Z,3.38
2023-02-26T15:10:05.463Z,3.33
2023-02-26T15:15:27.066Z,4.95
2023-02-26T15:18:19.961Z,4.60
2023-02-26T15:21:26.038Z,4.28
2023-02-26T15:23:56.551Z,4.18
2023-02-26T15:26:27.278Z,5.03
2023-02-26T15:28:56.617Z,3.60
2023-02-26T15:31:43.534Z,3.60
2023-02-26T15:34:13.278Z,5.20
2023-02-26T15:36:47.337Z,5.35
2023-02-26T15:39:17.646Z,4.22
2023-02-26T15:41:49.163Z,13.60
2023-02-26T15:44:22.283Z,8.73
2023-02-26T15:47:03.122Z,4.90
2023-02-26T15:49:37.224Z,7.05
2023-02-26T15:52:08.078Z,7.75
2023-02-26T15:54:51.603Z,11.75
2023-02-26T15:59:52.481Z,5.10
2023-02-26T16:02:26.129Z,4.55
2023-02-26T16:04:54.300Z,8.52
2023-02-26T16:07:26.290Z,6.50
2023-02-26T16:09:55.979Z,3.95
2023-02-26T16:12:31.026Z,2.92
2023-02-26T16:15:05.656Z,3.83
2023-02-26T16:17:39.952Z,3.42
2023-02-26T16:20:15.941Z,3.17
2023-02-26T16:22:51.681Z,3.85
2023-02-26T16:25:48.868Z,4.32
2023-02-26T16:28:23.981Z,4.07
2023-02-26T16:30:55.112Z,4.75
2023-02-26T16:33:25.082Z,5.40
2023-02-26T16:36:04.035Z,6.07
2023-02-26T16:38:43.281Z,7.13
2023-02-26T16:41:12.793Z,8.02
2023-02-26T16:43:49.525Z,6.60
2023-02-26T16:46:36.139Z,7.88
2023-02-26T16:49:11.107Z,13.65
2023-02-26T16:51:41.238Z,12.07
2023-02-26T16:54:23.002Z,10.98
2023-02-26T16:57:00.103Z,8.60
2023-02-26T16:59:35.105Z,10.20
2023-02-26T17:02:18.705Z,6.53
2023-02-26T17:04:52.427Z,6.95
2023-02-26T17:07:29.973Z,7.40
2023-02-26T17:10:09.294Z,6.93
2023-02-26T17:12:48.465Z,6.18
2023-02-26T17:15:33.054Z,5.80
2023-02-26T17:18:01.449Z,6.70
2023-02-26T17:20:31.083Z,6.63
2023-02-26T17:23:00.691Z,8.85
2023-02-26T17:25:37.221Z,20.13
2023-02-26T17:28:06.937Z,15.73
2023-02-26T17:30:35.787Z,13.98
2023-02-26T17:33:05.035Z,9.23
2023-02-26T17:35:33.653Z,14.20
2023-02-26T17:38:01.894Z,14.30
2023-02-26T17:40:36.559Z,15.52
2023-02-26T17:43:06.129Z,17.77
2023-02-26T17:45:35.679Z,16.67
2023-02-26T17:48:04.775Z,14.80
2023-02-26T17:50:49.128Z,17.38
2023-02-26T17:53:19.167Z,24.40
2023-02-26T17:55:48.832Z,30.60
2023-02-26T17:58:30.436Z,26.05
2023-02-26T18:00:58.548Z,39.05
2023-02-26T18:03:27.000Z,34.03
2023-02-26T18:05:56.746Z,41.95
2023-02-26T18:08:30.824Z,45.10
2023-02-26T18:11:00.709Z,51.22
2023-02-26T18:13:30.536Z,53.92
2023-02-26T18:16:01.089Z,64.63
2023-02-26T18:18:30.141Z,53.42
2023-02-26T18:20:58.773Z,50.22
2023-02-26T18:23:27.404Z,49.00
2023-02-26T18:25:56.579Z,40.22
2023-02-26T18:28:28.420Z,38.33
2023-02-26T18:30:58.083Z,35.95
2023-02-26T18:33:26.625Z,32.42
2023-02-26T18:35:57.418Z,33.20
2023-02-26T18:38:36.984Z,33.65
2023-02-26T18:41:07.071Z,33.15
2023-02-26T18:43:35.578Z,48.67
2023-02-26T18:46:03.682Z,32.90
2023-02-26T18:48:32.211Z,35.60
2023-02-26T18:51:00.528Z,40.97
2023-02-26T18:53:28.966Z,39.00
2023-02-26T18:55:58.289Z,58.42
2023-02-26T18:58:26.442Z,44.60
2023-02-26T19:00:54.735Z,45.67
2023-02-26T19:03:23.507Z,45.45
2023-02-26T19:06:03.567Z,48.47
2023-02-26T19:08:32.674Z,39.58
2023-02-26T19:11:01.000Z,33.10
2023-02-26T19:13:29.442Z,35.28
2023-02-26T19:15:57.687Z,41.60
2023-02-26T19:18:25.672Z,37.05
2023-02-26T19:20:54.518Z,47.08
2023-02-26T19:23:24.565Z,45.55
2023-02-26T19:25:52.678Z,49.92
2023-02-26T19:28:21.327Z,38.60
2023-02-26T19:30:49.689Z,36.80
2023-02-26T19:33:20.455Z,41.78
2023-02-26T19:35:48.599Z,43.45
2023-02-26T19:38:19.389Z,46.08
2023-02-26T19:40:47.608Z,42.70
2023-02-26T19:43:15.565Z,43.78
2023-02-26T19:45:43.476Z,40.00
2023-02-26T19:48:11.392Z,40.65
2023-02-26T19:50:39.604Z,44.17
2023-02-26T19:53:07.760Z,38.00
2023-02-26T19:55:35.763Z,37.67
2023-02-26T19:58:04.404Z,53.92
2023-02-26T20:00:33.045Z,60.88
2023-02-26T20:03:01.013Z,36.03
2023-02-26T20:05:29.123Z,45.05
2023-02-26T20:07:57.772Z,42.85
2023-02-26T20:10:26.945Z,51.42
2023-02-26T20:12:56.223Z,56.47
2023-02-26T20:15:25.127Z,55.28
2023-02-26T20:17:53.557Z,50.63
2023-02-26T20:20:21.547Z,44.95
2023-02-26T20:22:50.170Z,43.20
2023-02-26T20:25:20.171Z,52.33
2023-02-26T20:27:48.457Z,62.35
2023-02-26T20:30:16.610Z,66.13
2023-02-26T20:32:44.668Z,77.32
2023-02-26T20:35:12.804Z,67.38
2023-02-26T20:37:41.393Z,44.10
2023-02-26T20:40:10.743Z,53.25
2023-02-26T20:42:39.149Z,45.63
2023-02-26T20:45:08.413Z,43.53
2023-02-26T20:47:37.034Z,44.75
2023-02-26T20:50:06.200Z,45.90
2023-02-26T20:52:34.398Z,48.10
2023-02-26T20:55:04.074Z,47.25
2023-02-26T20:57:32.718Z,46.35
2023-02-26T21:00:04.072Z,40.55
2023-02-26T21:02:32.510Z,39.75
2023-02-26T21:05:01.341Z,34.97
2023-02-26T21:07:29.354Z,33.88
2023-02-26T21:09:58.036Z,22.67
2023-02-26T21:12:28.555Z,18.73
2023-02-26T21:14:57.309Z,17.58
2023-02-26T21:17:27.292Z,17.50
2023-02-26T21:19:57.207Z,17.83
2023-02-26T21:22:25.220Z,16.10
2023-02-26T21:24:53.495Z,17.48
2023-02-26T21:27:22.179Z,14.50
2023-02-26T21:29:50.191Z,14.27
2023-02-26T21:32:18.774Z,11.82
2023-02-26T21:34:47.102Z,9.20
2023-02-26T21:37:15.002Z,8.60
2023-02-26T21:39:43.218Z,10.45
2023-02-26T21:42:13.004Z,10.38
2023-02-26T21:44:41.759Z,11.40
2023-02-26T21:47:11.296Z,17.90
2023-02-26T21:49:39.765Z,23.92
2023-02-26T21:52:08.753Z,24.00
2023-02-26T21:54:37.347Z,21.05
2023-02-26T21:57:05.598Z,23.60
2023-02-26T21:59:34.541Z,23.90
2023-02-26T22:02:03.619Z,18.95
2023-02-26T22:04:33.792Z,19.38
2023-02-26T22:07:01.861Z,12.77
2023-02-26T22:09:30.033Z,13.25
2023-02-26T22:11:58.438Z,12.95
2023-02-26T22:14:26.733Z,9.07
2023-02-26T22:16:54.743Z,7.78
2023-02-26T22:19:22.824Z,11.75
2023-02-26T22:21:50.730Z,10.02
2023-02-26T22:24:19.358Z,7.90
2023-02-26T22:26:49.491Z,7.72
2023-02-26T22:29:19.360Z,22.25
2023-02-26T22:31:48.440Z,8.35
2023-02-26T22:34:16.696Z,4.35
2023-02-26T22:36:45.251Z,6.32
2023-02-26T22:39:15.542Z,5.82
2023-02-26T22:42:09.165Z,3.85
2023-02-26T22:44:37.237Z,2.90
2023-02-26T22:47:05.311Z,3.15
2023-02-26T22:49:33.850Z,3.72
2023-02-26T22:52:01.804Z,3.70
2023-02-26T22:54:30.215Z,3.58
2023-02-26T22:56:58.723Z,4.55
2023-02-26T22:59:26.713Z,4.75
2023-02-26T23:01:57.579Z,10.50
2023-02-26T23:04:25.815Z,5.65
2023-02-26T23:06:54.446Z,5.82
2023-02-26T23:09:22.668Z,5.00
2023-02-26T23:11:54.122Z,4.05
2023-02-26T23:14:22.923Z,4.35
2023-02-26T23:16:53.613Z,4.70
2023-02-26T23:19:22.086Z,7.80
2023-02-26T23:21:50.295Z,7.00
2023-02-26T23:24:21.481Z,7.03
2023-02-26T23:26:49.468Z,6.20
2023-02-26T23:29:17.654Z,5.25
2023-02-26T23:31:47.474Z,5.22
2023-02-26T23:34:15.895Z,4.40
2023-02-26T23:36:44.050Z,4.82
2023-02-26T23:39:18.215Z,6.22
2023-02-26T23:41:46.418Z,5.35
2023-02-26T23:44:14.805Z,7.63
2023-02-26T23:46:43.103Z,8.05
2023-02-26T23:49:11.355Z,7.13
2023-02-26T23:51:40.829Z,6.35
2023-02-26T23:54:12.775Z,7.05
2023-02-26T23:56:41.120Z,7.10
2023-02-26T23:59:09.520Z,5.65
